Time;durP1;ratioP1;P1;durP2;ratioP2;P2;SDS_P1;SDS_P2;PMS_P1;PMS_P2;Temp;Humidity;BMP_temperature;BMP_pressure;BME280_temperature;BME280_humidity;BME280_pressure;Samples;Min_cycle;Max_cycle;Signal;HPM_P1;HPM_P2
2021/03/07 00:02:21;;;;;;;12.13;8.05;;;0.50;41.10;;;;;;5030463;28;20196;-75
2021/03/07 00:04:48;;;;;;;11.15;7.95;;;0.50;41.90;;;;;;5030046;28;20211;-76
2021/03/07 00:07:15;;;;;;;14.77;8.80;;;0.30;40.80;;;;;;5032858;28;20235;-76
2021/03/07 00:09:42;;;;;;;15.02;8.70;;;0.10;41.60;;;;;;5020535;28;20235;-75
2021/03/07 00:12:08;;;;;;;11.88;9.35;;;0.10;41.60;;;;;;5003689;28;20252;-76
2021/03/07 00:14:35;;;;;;;14.77;9.15;;;0.10;41.60;;;;;;5006600;28;20761;-76
2021/03/07 00:17:01;;;;;;;14.00;10.48;;;0.00;41.50;;;;;;5016715;28;20286;-77
2021/03/07 00:19:28;;;;;;;14.45;9.70;;;0.00;41.50;;;;;;5020353;28;20652;-76
2021/03/07 00:21:55;;;;;;;15.05;10.02;;;0.00;41.50;;;;;;5014848;28;20227;-76
2021/03/07 00:24:21;;;;;;;17.00;9.90;;;0.20;41.70;;;;;;5016693;28;20215;-76
2021/03/07 00:26:48;;;;;;;15.93;11.57;;;0.20;41.70;;;;;;5017518;28;20250;-75
2021/03/07 00:29:14;;;;;;;14.80;10.30;;;0.20;41.50;;;;;;5018579;28;20349;-76
2021/03/07 00:31:41;;;;;;;11.05;8.32;;;0.20;41.70;;;;;;5005893;28;20220;-74
2021/03/07 00:34:07;;;;;;;15.35;10.10;;;0.20;41.70;;;;;;5006639;28;20200;-75
2021/03/07 00:36:34;;;;;;;13.13;8.45;;;0.20;40.80;;;;;;5017602;28;20236;-75
2021/03/07 00:39:01;;;;;;;14.43;10.23;;;0.20;40.90;;;;;;5027468;28;20220;-76
2021/03/07 00:41:28;;;;;;;14.90;9.20;;;0.20;40.80;;;;;;5013296;28;20211;-75
2021/03/07 00:43:54;;;;;;;14.35;9.60;;;0.20;40.70;;;;;;5006744;28;20209;-75
2021/03/07 00:46:20;;;;;;;18.27;9.63;;;0.20;41.20;;;;;;5015358;28;20790;-75
2021/03/07 00:48:47;;;;;;;14.10;9.30;;;0.20;40.50;;;;;;5018659;28;20634;-75
2021/03/07 00:51:13;;;;;;;13.73;8.55;;;0.10;41.40;;;;;;5018119;28;20592;-75
2021/03/07 00:53:40;;;;;;;12.80;9.20;;;0.00;41.50;;;;;;5018754;28;20200;-76
2021/03/07 00:56:08;;;;;;;14.60;9.05;;;-0.10;41.40;;;;;;5017540;28;20228;-76
2021/03/07 00:58:34;;;;;;;16.75;9.40;;;-0.10;41.40;;;;;;5018682;28;20208;-76
2021/03/07 01:01:00;;;;;;;12.88;10.13;;;-0.10;41.40;;;;;;5014612;28;20201;-75
2021/03/07 01:03:27;;;;;;;13.35;9.52;;;-0.20;41.30;;;;;;5013941;28;20234;-75
2021/03/07 01:05:53;;;;;;;16.15;9.93;;;-0.30;41.30;;;;;;5009561;28;20224;-75
2021/03/07 01:08:20;;;;;;;13.27;8.95;;;-0.30;41.70;;;;;;5001383;28;20208;-76
2021/03/07 01:10:46;;;;;;;15.90;9.63;;;-0.40;42.30;;;;;;4999281;28;20271;-75
2021/03/07 01:13:16;;;;;;;13.05;9.77;;;-0.50;42.70;;;;;;5000982;28;20201;-75
2021/03/07 01:15:42;;;;;;;16.02;9.43;;;-0.40;42.90;;;;;;4999530;28;20216;-75
2021/03/07 01:18:09;;;;;;;14.00;9.50;;;-0.30;42.70;;;;;;4999439;28;20545;-75
2021/03/07 01:20:39;;;;;;;16.13;9.82;;;-0.40;42.90;;;;;;5012522;28;20208;-78
2021/03/07 01:23:05;;;;;;;20.98;10.00;;;-0.50;42.70;;;;;;5019852;28;20354;-75
2021/03/07 01:25:32;;;;;;;13.88;9.70;;;-0.50;42.60;;;;;;5021760;28;20215;-76
2021/03/07 01:27:59;;;;;;;15.10;10.20;;;-0.50;43.20;;;;;;5018545;28;20574;-75
2021/03/07 01:30:28;;;;;;;16.80;10.30;;;-0.60;43.00;;;;;;5028435;28;20211;-75
2021/03/07 01:32:54;;;;;;;20.08;9.93;;;-0.60;43.40;;;;;;5025266;28;20204;-75
2021/03/07 01:35:21;;;;;;;12.10;9.02;;;-0.70;43.40;;;;;;5010411;28;20212;-76
2021/03/07 01:37:48;;;;;;;15.05;9.85;;;-0.70;43.70;;;;;;5000581;28;20224;-77
2021/03/07 01:40:18;;;;;;;13.10;9.25;;;-0.60;44.10;;;;;;5004822;28;20267;-76
2021/03/07 01:42:46;;;;;;;12.90;9.30;;;-0.50;43.10;;;;;;5000479;28;20200;-76
2021/03/07 01:45:13;;;;;;;16.27;10.18;;;-0.50;43.10;;;;;;5013881;28;20204;-76
2021/03/07 01:47:46;;;;;;;13.38;9.00;;;-0.50;43.00;;;;;;4998101;28;20220;-75
2021/03/07 01:50:14;;;;;;;12.57;9.23;;;-0.30;42.10;;;;;;4997774;28;20216;-75
2021/03/07 01:52:41;;;;;;;11.07;8.23;;;-0.30;41.20;;;;;;4999909;28;20224;-77
2021/03/07 01:55:09;;;;;;;15.23;9.13;;;-0.30;41.20;;;;;;5019862;28;20210;-75
2021/03/07 01:57:38;;;;;;;17.75;9.43;;;-0.30;41.20;;;;;;5025441;28;20669;-76
2021/03/07 02:00:25;;;;;;;12.90;9.10;;;-0.30;41.20;;;;;;5012675;28;20212;-76
2021/03/07 02:02:52;;;;;;;14.07;8.32;;;-0.20;41.20;;;;;;4990099;28;20236;-76
2021/03/07 02:05:20;;;;;;;11.00;7.65;;;-0.30;41.30;;;;;;4989204;28;20252;-76
2021/03/07 02:07:47;;;;;;;12.00;7.95;;;-0.30;40.80;;;;;;5008016;28;20356;-77
2021/03/07 02:10:18;;;;;;;13.57;8.20;;;-0.20;41.30;;;;;;5010006;28;20259;-77
2021/03/07 02:12:47;;;;;;;13.60;8.75;;;-0.10;40.40;;;;;;5000616;28;20221;-77
2021/03/07 02:15:14;;;;;;;12.90;8.13;;;-0.10;41.50;;;;;;4997047;28;20201;-75
2021/03/07 02:17:42;;;;;;;12.00;8.10;;;-0.20;39.80;;;;;;4994607;28;20256;-77
2021/03/07 02:20:12;;;;;;;9.63;7.85;;;-0.30;41.20;;;;;;4986417;28;20272;-77
2021/03/07 02:22:43;;;;;;;12.20;8.60;;;-0.40;40.70;;;;;;5005319;28;20245;-76
2021/03/07 02:25:13;;;;;;;11.73;8.27;;;-0.50;41.00;;;;;;5002441;28;20208;-75
2021/03/07 02:27:40;;;;;;;11.20;7.93;;;-0.50;41.00;;;;;;5007073;28;20248;-78
2021/03/07 02:30:10;;;;;;;11.73;7.25;;;-0.50;41.00;;;;;;5010754;28;20429;-76
2021/03/07 02:32:43;;;;;;;10.40;7.63;;;-0.60;41.00;;;;;;5020562;28;20228;-77
2021/03/07 02:35:14;;;;;;;13.35;8.57;;;-0.60;41.30;;;;;;5028249;28;20192;-76
2021/03/07 02:37:45;;;;;;;14.65;8.32;;;-0.50;41.00;;;;;;5028831;28;20619;-75
2021/03/07 02:40:14;;;;;;;9.52;6.80;;;-0.50;41.00;;;;;;5018705;28;20305;-76
2021/03/07 02:42:43;;;;;;;8.45;7.00;;;-0.50;41.00;;;;;;5017863;28;20203;-77
2021/03/07 02:45:14;;;;;;;10.20;7.05;;;-0.50;41.10;;;;;;5017359;28;20247;-76
2021/03/07 02:47:46;;;;;;;12.15;6.88;;;-0.50;41.10;;;;;;5004563;28;20248;-76
2021/03/07 02:50:16;;;;;;;9.07;6.95;;;-0.50;41.00;;;;;;5000102;28;20680;-76
2021/03/07 02:52:54;;;;;;;14.73;8.02;;;-0.50;41.00;;;;;;5020634;28;20232;-76
2021/03/07 02:55:25;;;;;;;9.88;7.00;;;-0.50;41.00;;;;;;5032301;28;20196;-76
2021/03/07 02:57:52;;;;;;;11.43;7.43;;;-0.60;41.00;;;;;;5033284;28;20196;-76
2021/03/07 03:00:20;;;;;;;12.93;8.50;;;-0.60;41.00;;;;;;5031406;28;20203;-75
2021/03/07 03:02:48;;;;;;;9.93;6.65;;;-0.60;41.00;;;;;;5032544;28;20251;-75
2021/03/07 03:05:17;;;;;;;8.75;7.07;;;-0.50;40.70;;;;;;5021782;28;20200;-76
2021/03/07 03:07:44;;;;;;;9.75;6.85;;;-0.40;40.60;;;;;;5017616;28;20259;-76
2021/03/07 03:10:12;;;;;;;11.82;6.43;;;-0.40;40.10;;;;;;5016938;28;20200;-73
2021/03/07 03:12:42;;;;;;;9.20;6.70;;;-0.40;39.40;;;;;;5032021;28;20255;-74
2021/03/07 03:15:10;;;;;;;10.18;6.25;;;-0.30;39.70;;;;;;5033986;28;20203;-76
2021/03/07 03:17:38;;;;;;;9.70;6.78;;;-0.30;39.20;;;;;;5034105;28;20230;-75
2021/03/07 03:20:10;;;;;;;9.98;6.22;;;-0.30;38.50;;;;;;5029770;28;20239;-75
2021/03/07 03:22:37;;;;;;;8.55;5.85;;;-0.20;38.40;;;;;;5029368;28;20721;-75
2021/03/07 03:25:06;;;;;;;9.20;6.72;;;-0.20;37.80;;;;;;5032976;28;20268;-76
2021/03/07 03:27:33;;;;;;;11.27;6.43;;;-0.10;37.70;;;;;;5031751;28;20297;-76
2021/03/07 03:30:01;;;;;;;8.10;6.57;;;-0.20;37.70;;;;;;5023648;28;20283;-77
2021/03/07 03:32:30;;;;;;;7.22;5.82;;;-0.30;38.00;;;;;;5015493;28;20234;-77
2021/03/07 03:34:57;;;;;;;9.30;5.95;;;-0.50;38.30;;;;;;5015554;28;20219;-75
2021/03/07 03:37:24;;;;;;;10.27;6.57;;;-0.40;38.90;;;;;;5015036;28;20235;-76
2021/03/07 03:39:52;;;;;;;12.13;7.00;;;-0.50;38.70;;;;;;5014403;28;20211;-76
2021/03/07 03:42:20;;;;;;;9.77;6.38;;;-0.50;39.00;;;;;;5006292;28;20204;-76
2021/03/07 03:44:48;;;;;;;8.65;6.05;;;-0.40;38.60;;;;;;5009619;28;20219;-76
2021/03/07 03:47:17;;;;;;;9.68;6.05;;;-0.30;38.60;;;;;;5001062;28;20256;-75
2021/03/07 03:49:52;;;;;;;10.38;6.43;;;-0.30;38.40;;;;;;5028802;28;20219;-76
2021/03/07 03:52:20;;;;;;;10.07;5.70;;;-0.20;37.90;;;;;;5029357;28;20237;-75
2021/03/07 03:54:52;;;;;;;10.63;6.30;;;-0.20;38.00;;;;;;5024824;28;20273;-75
2021/03/07 03:57:21;;;;;;;5.85;5.15;;;-0.30;38.30;;;;;;5014740;28;20736;-75
2021/03/07 03:59:49;;;;;;;12.00;6.45;;;-0.30;38.30;;;;;;4998954;28;20211;-77
2021/03/07 04:02:17;;;;;;;8.43;6.13;;;-0.40;38.50;;;;;;5005183;28;20243;-77
2021/03/07 04:04:45;;;;;;;8.05;5.82;;;-0.40;38.50;;;;;;5022229;28;20267;-76
2021/03/07 04:07:12;;;;;;;8.23;5.50;;;-0.40;38.30;;;;;;5025804;28;20228;-76
2021/03/07 04:09:40;;;;;;;8.23;5.55;;;-0.40;38.40;;;;;;5026241;28;20196;-76
2021/03/07 04:12:08;;;;;;;7.50;5.15;;;-0.30;38.20;;;;;;5024913;28;20234;-75
2021/03/07 04:14:36;;;;;;;9.73;5.97;;;-0.30;38.70;;;;;;5005052;28;20676;-76
2021/03/07 04:17:03;;;;;;;7.15;5.43;;;-0.20;38.30;;;;;;4997376;28;20303;-76
2021/03/07 04:19:33;;;;;;;9.27;6.35;;;-0.30;37.90;;;;;;5014950;28;20214;-77
2021/03/07 04:22:00;;;;;;;8.70;6.00;;;-0.40;37.90;;;;;;5028289;28;20267;-77
2021/03/07 04:24:27;;;;;;;6.75;5.05;;;-0.60;38.30;;;;;;5033144;28;20275;-76
2021/03/07 04:26:56;;;;;;;6.57;5.18;;;-0.70;38.70;;;;;;5027531;28;20232;-76
2021/03/07 04:29:25;;;;;;;8.10;6.00;;;-0.80;39.30;;;;;;5025616;28;20207;-74
2021/03/07 04:31:52;;;;;;;7.40;5.60;;;-0.60;39.20;;;;;;5018672;28;20231;-75
2021/03/07 04:34:19;;;;;;;8.50;5.97;;;-0.50;39.00;;;;;;5019314;28;20299;-77
2021/03/07 04:36:46;;;;;;;8.45;6.00;;;-0.60;38.70;;;;;;5029656;28;20315;-76
2021/03/07 04:39:13;;;;;;;10.23;6.28;;;-0.80;39.20;;;;;;5021223;28;20752;-75
2021/03/07 04:41:39;;;;;;;7.47;5.50;;;-0.80;40.20;;;;;;5008854;28;20238;-77
2021/03/07 04:44:07;;;;;;;10.05;6.03;;;-0.80;40.10;;;;;;5011959;28;20214;-76
2021/03/07 04:46:33;;;;;;;8.02;5.80;;;-0.80;40.50;;;;;;5027549;28;20593;-76
2021/03/07 04:48:59;;;;;;;10.50;6.35;;;-0.90;40.70;;;;;;5021784;28;20239;-75
2021/03/07 04:51:26;;;;;;;9.07;5.90;;;-0.80;40.80;;;;;;5012296;28;20319;-77
2021/03/07 04:53:54;;;;;;;10.38;6.85;;;-0.70;40.90;;;;;;5044215;23;20725;-78
2021/03/07 04:56:20;;;;;;;8.68;6.38;;;-0.60;40.80;;;;;;5042124;28;20306;-80
2021/03/07 04:58:46;;;;;;;7.13;6.00;;;-0.50;41.10;;;;;;5042575;28;20211;-80
2021/03/07 05:01:13;;;;;;;9.68;7.05;;;-0.40;40.40;;;;;;5040704;28;20303;-79
2021/03/07 05:03:39;;;;;;;10.52;6.18;;;-0.50;39.90;;;;;;5039080;28;20287;-79
2021/03/07 05:06:06;;;;;;;8.20;5.95;;;-0.70;40.90;;;;;;5030336;28;20262;-81
2021/03/07 05:08:32;;;;;;;8.90;6.18;;;-0.60;41.00;;;;;;5036196;28;20196;-79
2021/03/07 05:11:00;;;;;;;9.15;5.93;;;-0.70;41.60;;;;;;5052521;28;20636;-80
2021/03/07 05:13:26;;;;;;;9.85;6.78;;;-0.70;40.90;;;;;;5036895;28;20302;-78
2021/03/07 05:15:52;;;;;;;8.63;5.82;;;-0.70;40.90;;;;;;5039925;28;20219;-78
2021/03/07 05:18:19;;;;;;;9.80;6.45;;;-0.60;41.00;;;;;;5049989;28;20207;-80
2021/03/07 05:20:45;;;;;;;12.60;6.18;;;-0.70;40.90;;;;;;5051646;28;20233;-80
2021/03/07 05:23:12;;;;;;;10.15;5.97;;;-0.70;40.90;;;;;;5041599;28;20255;-80
2021/03/07 05:25:38;;;;;;;9.52;6.80;;;-0.70;40.90;;;;;;5015961;28;20287;-78
2021/03/07 05:28:06;;;;;;;12.10;6.40;;;-0.70;40.90;;;;;;5016124;28;20216;-79
2021/03/07 05:30:33;;;;;;;10.38;6.53;;;-0.70;40.90;;;;;;5033437;28;20593;-79
2021/03/07 05:32:59;;;;;;;9.27;5.07;;;-0.70;40.90;;;;;;5033556;28;20415;-79
2021/03/07 05:35:26;;;;;;;9.55;6.40;;;-0.80;40.80;;;;;;5034008;28;20199;-80
2021/03/07 05:37:52;;;;;;;8.95;6.10;;;-0.90;40.90;;;;;;5025231;28;20256;-79
2021/03/07 05:40:19;;;;;;;8.43;5.95;;;-1.00;41.70;;;;;;5015073;28;20360;-78
2021/03/07 05:42:45;;;;;;;9.77;5.72;;;-1.10;42.20;;;;;;5023839;28;20254;-79
2021/03/07 05:45:13;;;;;;;9.45;6.28;;;-1.10;42.60;;;;;;5035848;28;20211;-78
2021/03/07 05:47:40;;;;;;;8.98;6.10;;;-1.20;42.80;;;;;;5024947;28;20503;-78
2021/03/07 05:50:08;;;;;;;8.57;6.40;;;-1.30;43.10;;;;;;5017657;28;20613;-79
2021/03/07 05:52:35;;;;;;;9.57;6.25;;;-1.30;43.20;;;;;;5032414;28;20650;-81
2021/03/07 05:55:03;;;;;;;10.80;6.45;;;-1.30;43.40;;;;;;5035561;28;20238;-79
2021/03/07 05:57:31;;;;;;;9.85;7.47;;;-1.40;43.80;;;;;;5035616;28;20214;-81
2021/03/07 06:00:00;;;;;;;8.95;5.93;;;-1.40;44.10;;;;;;5035304;28;20238;-81
2021/03/07 06:02:28;;;;;;;7.72;6.13;;;-1.30;44.20;;;;;;5039665;28;20234;-78
2021/03/07 06:04:54;;;;;;;8.98;6.25;;;-1.30;44.20;;;;;;5038685;28;20196;-83
2021/03/07 06:07:21;;;;;;;9.45;6.40;;;-1.40;44.00;;;;;;5037869;28;20267;-83
2021/03/07 06:09:48;;;;;;;14.63;8.27;;;-1.30;44.00;;;;;;5034371;28;20216;-78
2021/03/07 06:12:16;;;;;;;8.65;6.50;;;-1.40;44.20;;;;;;5014275;28;20245;-78
2021/03/07 06:14:44;;;;;;;10.45;6.90;;;-1.40;44.60;;;;;;5015252;28;20208;-80
2021/03/07 06:17:12;;;;;;;9.70;6.22;;;-1.40;44.70;;;;;;5034956;28;20211;-78
2021/03/07 06:19:58;;;;;;;8.93;6.40;;;-1.20;45.20;;;;;;5043907;28;20188;-82
2021/03/07 06:22:25;;;;;;;9.57;7.18;;;-1.10;44.30;;;;;;5056872;28;20218;-83
2021/03/07 06:24:52;;;;;;;11.05;7.25;;;-1.10;44.10;;;;;;5056451;28;20201;-80
2021/03/07 06:27:19;;;;;;;9.13;6.50;;;-1.20;44.10;;;;;;5025550;28;20212;-80
2021/03/07 06:29:56;;;;;;;9.45;5.75;;;-1.30;44.10;;;;;;5014615;28;20632;-78
2021/03/07 06:32:23;;;;;;;9.57;6.32;;;-1.40;43.90;;;;;;5013368;28;20235;-78
2021/03/07 06:34:50;;;;;;;8.95;6.13;;;-1.40;43.90;;;;;;5013998;28;20214;-78
2021/03/07 06:37:18;;;;;;;10.60;6.80;;;-1.50;44.10;;;;;;5015713;28;20208;-81
2021/03/07 06:39:44;;;;;;;10.05;6.82;;;-1.60;44.60;;;;;;5014472;28;20199;-79
2021/03/07 06:42:12;;;;;;;8.70;6.25;;;-1.50;44.60;;;;;;5031534;28;20199;-80
2021/03/07 06:44:50;;;;;;;9.65;6.93;;;-1.50;44.60;;;;;;5033999;28;20199;-79
2021/03/07 06:47:17;;;;;;;9.63;6.30;;;-1.50;44.40;;;;;;5019397;28;20497;-79
2021/03/07 06:49:43;;;;;;;8.88;6.00;;;-1.50;44.50;;;;;;5018672;28;20230;-80
2021/03/07 06:52:15;;;;;;;12.55;7.78;;;-1.50;44.60;;;;;;5019139;28;20567;-79
2021/03/07 06:54:43;;;;;;;10.98;7.28;;;-1.50;44.90;;;;;;5036378;28;20223;-82
2021/03/07 06:57:10;;;;;;;10.68;6.93;;;-1.40;44.70;;;;;;5031297;28;20266;-78
2021/03/07 06:59:37;;;;;;;8.65;6.43;;;-1.40;44.70;;;;;;5024163;28;20203;-78
2021/03/07 07:02:10;;;;;;;11.65;7.65;;;-1.40;45.10;;;;;;5037938;28;20299;-80
2021/03/07 07:04:42;;;;;;;11.63;7.25;;;-1.30;45.00;;;;;;5023470;28;20215;-79
2021/03/07 07:07:10;;;;;;;10.10;6.93;;;-1.30;45.10;;;;;;5014415;28;20207;-79
2021/03/07 07:09:37;;;;;;;9.48;6.55;;;-1.20;44.60;;;;;;5024848;28;20213;-79
2021/03/07 07:12:06;;;;;;;17.73;7.55;;;-1.20;44.40;;;;;;5033847;28;20273;-79
2021/03/07 07:14:38;;;;;;;10.75;7.60;;;-1.20;44.50;;;;;;5033267;28;20242;-79
2021/03/07 07:17:05;;;;;;;12.60;7.90;;;-1.10;44.50;;;;;;5034044;28;20328;-80
2021/03/07 07:19:32;;;;;;;10.00;6.90;;;-1.00;44.10;;;;;;5033923;28;20625;-79
2021/03/07 07:21:58;;;;;;;13.02;6.57;;;-0.90;44.20;;;;;;5034247;28;20209;-80
2021/03/07 07:24:25;;;;;;;10.45;6.32;;;-0.80;43.60;;;;;;5034227;28;20265;-80
2021/03/07 07:26:51;;;;;;;11.43;7.00;;;-0.80;43.20;;;;;;5033930;28;20211;-79
2021/03/07 07:29:18;;;;;;;10.27;7.05;;;-0.70;42.80;;;;;;5030051;28;20200;-79
2021/03/07 07:31:51;;;;;;;9.25;6.60;;;-0.70;43.10;;;;;;5014632;28;20326;-80
2021/03/07 07:34:23;;;;;;;9.75;7.15;;;-0.60;43.10;;;;;;5013835;28;20216;-79
2021/03/07 07:36:52;;;;;;;9.05;6.85;;;-0.60;42.70;;;;;;5014339;28;20296;-80
2021/03/07 07:39:26;;;;;;;9.77;6.95;;;-0.60;43.50;;;;;;5016956;28;20294;-80
2021/03/07 07:41:53;;;;;;;8.48;6.63;;;-0.50;42.70;;;;;;5013920;28;20218;-81
2021/03/07 07:44:29;;;;;;;13.93;7.35;;;-0.40;42.30;;;;;;5018004;28;20227;-80
2021/03/07 07:46:58;;;;;;;13.60;8.00;;;-0.30;42.50;;;;;;5033510;28;20217;-80
2021/03/07 07:49:53;;;;;;;10.02;6.40;;;-0.10;41.50;;;;;;5015307;28;20199;-80
2021/03/07 07:52:36;;;;;;;9.68;6.28;;;0.00;41.50;;;;;;5014965;28;20297;-81
2021/03/07 07:55:09;;;;;;;9.07;6.95;;;0.10;41.60;;;;;;5016020;28;20212;-79
2021/03/07 07:57:45;;;;;;;9.27;7.20;;;0.30;41.10;;;;;;5016490;28;20275;-80
2021/03/07 08:00:16;;;;;;;12.05;7.10;;;0.40;40.50;;;;;;5037876;28;20211;-79
2021/03/07 08:02:50;;;;;;;13.18;7.22;;;0.50;39.70;;;;;;5032448;28;20227;-79
2021/03/07 08:05:44;;;;;;;12.45;7.18;;;0.60;39.80;;;;;;5033102;28;20210;-79
2021/03/07 08:08:13;;;;;;;8.05;6.43;;;0.70;39.30;;;;;;5028359;28;20250;-78
2021/03/07 08:10:50;;;;;;;10.30;7.13;;;0.80;39.60;;;;;;5012924;28;20207;-79
2021/03/07 08:13:46;;;;;;;10.25;6.38;;;1.00;38.80;;;;;;5015102;28;20231;-80
2021/03/07 08:16:34;;;;;;;9.90;7.18;;;0.80;38.50;;;;;;5019619;28;20223;-81
2021/03/07 08:19:01;;;;;;;8.60;6.90;;;1.00;38.80;;;;;;5027780;28;20237;-82
2021/03/07 08:21:27;;;;;;;9.65;7.07;;;1.00;37.90;;;;;;5031803;28;20197;-86
2021/03/07 08:24:05;;;;;;;12.10;8.05;;;1.10;37.20;;;;;;5035588;28;20235;-83
2021/03/07 08:27:01;;;;;;;12.90;7.10;;;1.20;36.70;;;;;;5043951;28;20253;-84
2021/03/07 08:29:47;;;;;;;11.25;7.82;;;1.30;36.90;;;;;;5047753;28;20298;-84
2021/03/07 08:32:42;;;;;;;10.57;7.65;;;1.00;37.20;;;;;;5032498;28;20660;-81
2021/03/07 08:35:26;;;;;;;10.27;7.10;;;1.20;37.70;;;;;;5021935;28;20270;-78
2021/03/07 08:38:14;;;;;;;10.75;6.82;;;1.30;37.80;;;;;;5032311;28;20573;-79
2021/03/07 08:40:41;;;;;;;11.38;7.70;;;1.60;37.00;;;;;;5029175;28;20302;-80
2021/03/07 08:43:50;;;;;;;10.05;7.38;;;1.60;37.10;;;;;;5019210;28;20274;-80
2021/03/07 08:46:19;;;;;;;10.10;6.60;;;1.70;36.30;;;;;;5025835;28;20191;-78
2021/03/07 08:48:48;;;;;;;11.20;7.10;;;1.80;35.90;;;;;;5016070;28;20540;-79
2021/03/07 08:51:17;;;;;;;13.25;7.07;;;1.90;34.80;;;;;;5017726;28;20235;-79
2021/03/07 08:53:46;;;;;;;9.45;7.47;;;1.90;35.20;;;;;;5017780;28;20334;-80
2021/03/07 08:56:13;;;;;;;11.02;7.00;;;1.80;35.70;;;;;;5015135;28;20212;-79
2021/03/07 08:58:40;;;;;;;11.10;7.30;;;1.90;35.10;;;;;;5013697;28;20683;-80
2021/03/07 09:01:08;;;;;;;9.68;6.72;;;2.20;34.90;;;;;;4991369;28;20240;-79
2021/03/07 09:03:34;;;;;;;12.10;6.90;;;2.30;34.50;;;;;;4993113;28;20232;-79
2021/03/07 09:06:10;;;;;;;12.15;7.35;;;2.40;34.00;;;;;;4992192;28;20711;-79
2021/03/07 09:08:37;;;;;;;9.45;7.35;;;2.60;34.10;;;;;;4995356;28;20348;-81
2021/03/07 09:11:09;;;;;;;8.48;6.80;;;2.60;34.10;;;;;;5010408;28;20220;-79
2021/03/07 09:13:47;;;;;;;9.35;7.55;;;2.80;34.70;;;;;;5009171;28;20287;-80
2021/03/07 09:16:14;;;;;;;10.82;7.47;;;3.00;33.40;;;;;;5019206;28;20246;-79
2021/03/07 09:18:41;;;;;;;9.20;6.80;;;3.20;33.30;;;;;;5021064;28;20396;-80
2021/03/07 09:21:10;;;;;;;11.45;7.18;;;3.20;32.20;;;;;;5019303;28;20565;-79
2021/03/07 09:23:38;;;;;;;10.32;7.95;;;3.10;32.00;;;;;;5002502;28;20231;-80
2021/03/07 09:26:07;;;;;;;9.25;7.15;;;3.20;32.30;;;;;;5018989;28;20231;-79
2021/03/07 09:28:39;;;;;;;8.90;6.82;;;3.10;32.30;;;;;;5020948;28;20357;-79
2021/03/07 09:31:08;;;;;;;9.20;6.97;;;3.10;32.50;;;;;;5005934;28;20759;-79
2021/03/07 09:33:35;;;;;;;11.45;6.82;;;3.20;32.30;;;;;;5002876;28;20228;-78
2021/03/07 09:36:04;;;;;;;9.48;6.78;;;3.30;32.20;;;;;;4998901;28;20211;-79
2021/03/07 09:38:51;;;;;;;9.95;7.72;;;3.30;32.00;;;;;;5005120;28;20283;-78
2021/03/07 09:41:29;;;;;;;12.15;8.18;;;3.40;32.00;;;;;;5003154;28;20232;-80
2021/03/07 09:43:56;;;;;;;13.88;7.93;;;3.80;31.80;;;;;;5024366;28;20266;-79
2021/03/07 09:46:24;;;;;;;10.52;7.25;;;4.20;31.30;;;;;;5025897;28;20309;-78
2021/03/07 09:48:55;;;;;;;10.20;7.90;;;4.70;29.90;;;;;;5022399;28;20651;-78
2021/03/07 09:51:22;;;;;;;10.30;6.95;;;4.80;29.00;;;;;;5016622;28;20884;-80
2021/03/07 09:53:49;;;;;;;9.45;7.32;;;4.90;29.10;;;;;;5014714;28;20272;-78
2021/03/07 09:56:28;;;;;;;9.68;7.40;;;5.00;28.60;;;;;;5021193;28;20285;-78
2021/03/07 09:59:07;;;;;;;10.52;7.47;;;5.00;28.50;;;;;;5018184;28;20207;-79
2021/03/07 10:01:41;;;;;;;9.55;6.80;;;5.10;28.40;;;;;;5014170;28;20220;-79
2021/03/07 10:04:30;;;;;;;9.98;7.65;;;5.10;27.90;;;;;;5015233;28;20223;-79
2021/03/07 10:06:56;;;;;;;8.77;6.80;;;5.30;27.80;;;;;;5014064;28;20702;-80
2021/03/07 10:09:24;;;;;;;8.45;6.50;;;5.50;27.50;;;;;;5006745;28;20295;-79
2021/03/07 10:11:58;;;;;;;8.48;6.70;;;5.20;27.60;;;;;;4994779;28;20237;-80
2021/03/07 10:14:27;;;;;;;8.60;7.32;;;5.60;28.20;;;;;;4999259;28;20294;-80
2021/03/07 10:16:53;;;;;;;9.63;7.45;;;5.90;27.70;;;;;;4994772;28;20303;-78
2021/03/07 10:19:20;;;;;;;11.63;7.60;;;6.30;27.20;;;;;;4994566;28;20217;-78
2021/03/07 10:21:47;;;;;;;10.43;7.55;;;6.60;26.70;;;;;;4995137;28;20208;-79
2021/03/07 10:24:18;;;;;;;10.43;7.95;;;6.70;26.20;;;;;;4995279;28;20259;-78
2021/03/07 10:26:47;;;;;;;10.63;7.70;;;6.80;26.40;;;;;;4995683;28;20545;-80
2021/03/07 10:29:22;;;;;;;8.52;6.60;;;6.70;25.90;;;;;;5000039;28;20387;-81
2021/03/07 10:32:22;;;;;;;9.60;7.72;;;6.30;26.50;;;;;;5016237;28;20232;-80
2021/03/07 10:34:50;;;;;;;10.73;7.90;;;6.50;26.80;;;;;;5016424;28;20201;-80
2021/03/07 10:37:37;;;;;;;10.82;7.25;;;6.60;26.20;;;;;;4999847;28;20316;-80
2021/03/07 10:40:06;;;;;;;11.77;9.40;;;6.80;26.20;;;;;;5002082;28;20696;-80
2021/03/07 10:42:35;;;;;;;10.30;7.85;;;6.90;26.00;;;;;;4998776;28;20260;-78
2021/03/07 10:45:17;;;;;;;9.15;6.93;;;6.90;25.90;;;;;;5029424;28;20200;-85
2021/03/07 10:47:44;;;;;;;7.85;6.70;;;7.00;26.30;;;;;;5034414;28;20211;-83
2021/03/07 10:50:11;;;;;;;9.13;7.45;;;7.10;25.60;;;;;;5016166;28;20209;-85
2021/03/07 10:52:38;;;;;;;10.50;7.65;;;6.90;25.90;;;;;;5027490;23;20236;-77
2021/03/07 10:55:13;;;;;;;10.63;8.93;;;6.70;26.00;;;;;;5037910;28;20203;-77
2021/03/07 10:57:40;;;;;;;9.40;7.20;;;6.90;25.90;;;;;;5036550;28;20278;-75
2021/03/07 11:00:07;;;;;;;9.00;6.85;;;7.10;25.70;;;;;;5054615;28;20202;-77
2021/03/07 11:02:34;;;;;;;9.70;7.80;;;7.30;25.30;;;;;;5054386;28;20245;-78
2021/03/07 11:05:00;;;;;;;9.98;7.88;;;7.10;25.30;;;;;;5056708;28;20186;-77
2021/03/07 11:07:27;;;;;;;8.52;7.60;;;7.30;25.10;;;;;;5054903;28;20198;-76
2021/03/07 11:09:53;;;;;;;8.77;7.50;;;7.80;24.40;;;;;;5056311;28;20187;-80
2021/03/07 11:12:20;;;;;;;9.38;7.47;;;8.10;23.80;;;;;;5056661;28;20215;-79
2021/03/07 11:14:47;;;;;;;10.05;7.80;;;8.30;24.40;;;;;;5043531;28;20202;-76
2021/03/07 11:17:13;;;;;;;9.52;7.20;;;8.20;23.40;;;;;;5037925;28;20222;-75
2021/03/07 11:19:40;;;;;;;9.15;7.10;;;8.00;24.00;;;;;;5032094;28;20230;-75
2021/03/07 11:22:06;;;;;;;11.63;7.70;;;7.90;24.40;;;;;;5015706;28;20220;-76
2021/03/07 11:24:33;;;;;;;10.88;8.07;;;7.60;24.80;;;;;;5020127;28;20218;-77
2021/03/07 11:26:59;;;;;;;8.95;8.05;;;7.70;25.10;;;;;;5041817;28;20207;-76
2021/03/07 11:29:26;;;;;;;9.88;7.93;;;7.30;25.40;;;;;;5039198;28;20199;-76
2021/03/07 11:31:53;;;;;;;12.48;8.70;;;7.30;25.40;;;;;;5035201;28;20219;-77
2021/03/07 11:34:19;;;;;;;11.02;8.35;;;7.40;25.80;;;;;;5034136;28;20235;-76
2021/03/07 11:36:46;;;;;;;11.23;8.20;;;7.50;25.60;;;;;;5016744;28;20280;-76
2021/03/07 11:39:13;;;;;;;10.75;7.60;;;7.30;26.10;;;;;;5017040;28;20250;-78
2021/03/07 11:41:39;;;;;;;11.35;8.55;;;7.10;25.90;;;;;;5016272;28;20212;-76
2021/03/07 11:44:06;;;;;;;10.10;7.85;;;7.10;25.80;;;;;;5016523;28;20577;-75
2021/03/07 11:46:32;;;;;;;10.93;8.02;;;7.20;25.80;;;;;;5020986;28;20575;-77
2021/03/07 11:49:00;;;;;;;10.50;7.75;;;7.20;25.90;;;;;;5035511;28;20204;-79
2021/03/07 11:51:26;;;;;;;10.10;7.97;;;7.30;26.10;;;;;;5051552;28;20227;-80
2021/03/07 11:53:53;;;;;;;9.40;7.78;;;7.40;26.60;;;;;;5055885;28;20227;-78
2021/03/07 11:56:19;;;;;;;10.60;8.30;;;7.50;26.00;;;;;;5039685;28;20207;-77
2021/03/07 11:58:46;;;;;;;10.57;7.75;;;7.50;25.90;;;;;;5033768;28;20204;-77
2021/03/07 12:01:12;;;;;;;12.68;7.65;;;7.50;26.00;;;;;;5016761;28;20203;-75
2021/03/07 12:03:39;;;;;;;13.00;8.85;;;7.60;25.60;;;;;;5017331;28;20232;-79
2021/03/07 12:06:06;;;;;;;12.52;9.00;;;7.60;25.60;;;;;;5030040;28;20312;-77
2021/03/07 12:08:32;;;;;;;10.30;7.90;;;7.70;25.90;;;;;;5036468;28;20619;-77
2021/03/07 12:10:59;;;;;;;9.50;7.70;;;7.80;25.50;;;;;;5034895;28;20213;-78
2021/03/07 12:13:25;;;;;;;10.77;8.25;;;8.00;25.20;;;;;;5033380;28;20231;-77
2021/03/07 12:15:52;;;;;;;9.80;7.90;;;8.20;25.30;;;;;;5025685;28;20227;-77
2021/03/07 12:18:18;;;;;;;9.95;8.25;;;8.20;24.60;;;;;;5031400;28;20275;-77
2021/03/07 12:20:45;;;;;;;11.77;8.60;;;8.30;24.60;;;;;;5021677;28;20291;-76
2021/03/07 12:23:12;;;;;;;9.48;7.90;;;8.30;24.60;;;;;;5026445;28;20207;-76
2021/03/07 12:25:38;;;;;;;10.50;8.27;;;8.00;25.00;;;;;;5024171;28;20204;-77
2021/03/07 12:28:05;;;;;;;9.52;8.10;;;8.20;24.80;;;;;;5022174;28;20648;-76
2021/03/07 12:30:32;;;;;;;11.10;8.20;;;8.30;24.70;;;;;;5025413;28;20267;-76
2021/03/07 12:32:58;;;;;;;13.95;8.45;;;8.40;24.60;;;;;;5034280;28;20258;-77
2021/03/07 12:35:25;;;;;;;12.57;8.20;;;8.40;23.80;;;;;;5033992;28;20215;-77
2021/03/07 12:37:51;;;;;;;11.23;8.10;;;8.30;23.90;;;;;;5037761;28;20203;-77
2021/03/07 12:40:19;;;;;;;11.15;8.50;;;8.20;24.20;;;;;;5036960;28;20215;-75
2021/03/07 12:42:45;;;;;;;9.65;7.80;;;8.20;23.50;;;;;;5035564;28;20223;-75
2021/03/07 12:45:12;;;;;;;11.98;8.73;;;8.10;23.40;;;;;;5038235;28;20218;-76
2021/03/07 12:47:39;;;;;;;10.60;8.50;;;8.20;23.80;;;;;;5039765;28;20214;-75
2021/03/07 12:50:06;;;;;;;11.90;8.85;;;8.40;23.40;;;;;;5041599;28;20641;-74
2021/03/07 12:52:33;;;;;;;9.35;8.32;;;8.40;23.00;;;;;;5033744;28;20227;-76
2021/03/07 12:54:59;;;;;;;12.05;9.52;;;8.50;23.70;;;;;;5017171;28;20214;-74
2021/03/07 12:57:27;;;;;;;13.73;9.25;;;8.60;22.80;;;;;;5019844;28;20214;-78